sensor_id;sensor_type;location;lat;lon;timestamp;P1;durP1;ratioP1;P2;durP2;ratioP2
75866;SDS011;64513;56.258;43.980;2022-12-18T00:00:20;23.20;;;8.70;;
75866;SDS011;64513;56.258;43.980;2022-12-18T00:02:44;25.05;;;8.68;;
75866;SDS011;64513;56.258;43.980;2022-12-18T00:05:08;24.75;;;9.10;;
75866;SDS011;64513;56.258;43.980;2022-12-18T00:07:32;24.35;;;9.15;;
75866;SDS011;64513;56.258;43.980;2022-12-18T00:09:57;20.90;;;8.58;;
75866;SDS011;64513;56.258;43.980;2022-12-18T00:12:21;22.80;;;8.65;;
75866;SDS011;64513;56.258;43.980;2022-12-18T00:14:45;23.57;;;9.35;;
75866;SDS011;64513;56.258;43.980;2022-12-18T00:17:09;23.62;;;9.20;;
75866;SDS011;64513;56.258;43.980;2022-12-18T00:19:33;20.32;;;8.83;;
75866;SDS011;64513;56.258;43.980;2022-12-18T00:21:58;25.15;;;9.25;;
75866;SDS011;64513;56.258;43.980;2022-12-18T00:24:22;24.30;;;9.15;;
75866;SDS011;64513;56.258;43.980;2022-12-18T00:26:46;24.32;;;8.65;;
75866;SDS011;64513;56.258;43.980;2022-12-18T00:29:11;25.43;;;9.05;;
75866;SDS011;64513;56.258;43.980;2022-12-18T00:31:37;21.97;;;9.20;;
75866;SDS011;64513;56.258;43.980;2022-12-18T00:34:01;24.02;;;9.35;;
75866;SDS011;64513;56.258;43.980;2022-12-18T00:38:54;24.30;;;9.25;;
75866;SDS011;64513;56.258;43.980;2022-12-18T00:41:19;25.37;;;9.35;;
75866;SDS011;64513;56.258;43.980;2022-12-18T00:44:04;20.88;;;8.73;;
75866;SDS011;64513;56.258;43.980;2022-12-18T00:46:29;20.97;;;8.35;;
75866;SDS011;64513;56.258;43.980;2022-12-18T00:48:54;19.80;;;8.10;;
75866;SDS011;64513;56.258;43.980;2022-12-18T00:51:18;23.85;;;8.68;;
75866;SDS011;64513;56.258;43.980;2022-12-18T00:53:42;19.25;;;8.00;;
75866;SDS011;64513;56.258;43.980;2022-12-18T00:56:06;21.95;;;9.03;;
75866;SDS011;64513;56.258;43.980;2022-12-18T00:58:30;22.30;;;8.55;;
75866;SDS011;64513;56.258;43.980;2022-12-18T01:00:54;27.30;;;9.20;;
75866;SDS011;64513;56.258;43.980;2022-12-18T01:03:19;23.05;;;8.73;;
75866;SDS011;64513;56.258;43.980;2022-12-18T01:05:43;24.35;;;8.55;;
75866;SDS011;64513;56.258;43.980;2022-12-18T01:08:07;22.20;;;8.70;;
75866;SDS011;64513;56.258;43.980;2022-12-18T01:10:31;21.95;;;9.03;;
75866;SDS011;64513;56.258;43.980;2022-12-18T01:12:55;20.10;;;8.00;;
75866;SDS011;64513;56.258;43.980;2022-12-18T01:15:20;22.22;;;8.53;;
75866;SDS011;64513;56.258;43.980;2022-12-18T01:17:44;19.73;;;7.95;;
75866;SDS011;64513;56.258;43.980;2022-12-18T01:20:09;21.05;;;7.78;;
75866;SDS011;64513;56.258;43.980;2022-12-18T01:22:34;19.23;;;8.00;;
75866;SDS011;64513;56.258;43.980;2022-12-18T01:24:59;23.35;;;8.60;;
75866;SDS011;64513;56.258;43.980;2022-12-18T01:27:25;21.30;;;7.72;;
75866;SDS011;64513;56.258;43.980;2022-12-18T01:29:49;20.62;;;8.05;;
75866;SDS011;64513;56.258;43.980;2022-12-18T01:32:13;21.33;;;8.13;;
75866;SDS011;64513;56.258;43.980;2022-12-18T01:34:37;19.87;;;8.10;;
75866;SDS011;64513;56.258;43.980;2022-12-18T01:37:02;23.55;;;8.10;;
75866;SDS011;64513;56.258;43.980;2022-12-18T01:39:28;20.35;;;7.87;;
75866;SDS011;64513;56.258;43.980;2022-12-18T01:41:52;19.10;;;7.83;;
75866;SDS011;64513;56.258;43.980;2022-12-18T01:53:11;18.87;;;7.58;;
75866;SDS011;64513;56.258;43.980;2022-12-18T01:55:39;17.92;;;7.55;;
75866;SDS011;64513;56.258;43.980;2022-12-18T01:58:05;21.40;;;8.23;;
75866;SDS011;64513;56.258;43.980;2022-12-18T02:00:29;18.42;;;7.60;;
75866;SDS011;64513;56.258;43.980;2022-12-18T02:02:54;21.05;;;8.20;;
75866;SDS011;64513;56.258;43.980;2022-12-18T02:05:19;20.80;;;7.80;;
75866;SDS011;64513;56.258;43.980;2022-12-18T02:28:19;18.73;;;6.80;;
75866;SDS011;64513;56.258;43.980;2022-12-18T02:30:46;17.70;;;7.15;;
75866;SDS011;64513;56.258;43.980;2022-12-18T02:33:13;17.62;;;7.08;;
75866;SDS011;64513;56.258;43.980;2022-12-18T02:35:38;19.70;;;6.97;;
75866;SDS011;64513;56.258;43.980;2022-12-18T02:38:05;19.87;;;6.70;;
75866;SDS011;64513;56.258;43.980;2022-12-18T02:40:30;16.82;;;6.85;;
75866;SDS011;64513;56.258;43.980;2022-12-18T02:42:54;14.40;;;6.30;;
75866;SDS011;64513;56.258;43.980;2022-12-18T02:45:20;15.28;;;6.03;;
75866;SDS011;64513;56.258;43.980;2022-12-18T02:47:46;18.92;;;6.50;;
75866;SDS011;64513;56.258;43.980;2022-12-18T02:59:26;14.53;;;5.45;;
75866;SDS011;64513;56.258;43.980;2022-12-18T03:04:57;13.95;;;5.10;;
75866;SDS011;64513;56.258;43.980;2022-12-18T03:07:42;15.83;;;5.40;;
75866;SDS011;64513;56.258;43.980;2022-12-18T03:13:31;17.12;;;5.17;;
75866;SDS011;64513;56.258;43.980;2022-12-18T03:16:18;12.33;;;5.00;;
75866;SDS011;64513;56.258;43.980;2022-12-18T03:24:15;12.60;;;4.90;;
75866;SDS011;64513;56.258;43.980;2022-12-18T03:26:43;11.45;;;4.22;;
75866;SDS011;64513;56.258;43.980;2022-12-18T03:29:09;12.33;;;4.60;;
75866;SDS011;64513;56.258;43.980;2022-12-18T03:31:55;11.70;;;4.60;;
75866;SDS011;64513;56.258;43.980;2022-12-18T03:34:40;13.85;;;4.90;;
75866;SDS011;64513;56.258;43.980;2022-12-18T03:37:07;13.20;;;4.75;;
75866;SDS011;64513;56.258;43.980;2022-12-18T03:39:31;12.03;;;4.20;;
75866;SDS011;64513;56.258;43.980;2022-12-18T03:41:59;12.00;;;4.78;;
75866;SDS011;64513;56.258;43.980;2022-12-18T03:47:28;11.75;;;4.30;;
75866;SDS011;64513;56.258;43.980;2022-12-18T03:56:21;10.55;;;3.72;;
75866;SDS011;64513;56.258;43.980;2022-12-18T03:58:47;9.58;;;4.10;;
75866;SDS011;64513;56.258;43.980;2022-12-18T04:01:16;10.70;;;4.42;;
75866;SDS011;64513;56.258;43.980;2022-12-18T04:03:41;10.45;;;4.00;;
75866;SDS011;64513;56.258;43.980;2022-12-18T04:06:07;9.23;;;3.55;;
75866;SDS011;64513;56.258;43.980;2022-12-18T04:08:33;11.15;;;3.95;;
75866;SDS011;64513;56.258;43.980;2022-12-18T04:10:59;10.82;;;4.08;;
75866;SDS011;64513;56.258;43.980;2022-12-18T04:16:08;10.65;;;4.00;;
75866;SDS011;64513;56.258;43.980;2022-12-18T04:18:32;11.20;;;4.37;;
75866;SDS011;64513;56.258;43.980;2022-12-18T04:20:56;11.12;;;4.47;;
75866;SDS011;64513;56.258;43.980;2022-12-18T04:23:20;9.55;;;3.50;;
75866;SDS011;64513;56.258;43.980;2022-12-18T04:25:45;9.45;;;3.72;;
75866;SDS011;64513;56.258;43.980;2022-12-18T04:28:10;9.60;;;4.10;;
75866;SDS011;64513;56.258;43.980;2022-12-18T04:30:34;9.78;;;3.50;;
75866;SDS011;64513;56.258;43.980;2022-12-18T04:32:58;11.43;;;4.03;;
75866;SDS011;64513;56.258;43.980;2022-12-18T04:35:22;13.03;;;4.70;;
75866;SDS011;64513;56.258;43.980;2022-12-18T04:37:47;10.85;;;4.08;;
75866;SDS011;64513;56.258;43.980;2022-12-18T04:40:12;10.80;;;4.10;;
75866;SDS011;64513;56.258;43.980;2022-12-18T04:42:38;10.95;;;3.90;;
75866;SDS011;64513;56.258;43.980;2022-12-18T04:45:03;12.07;;;4.72;;
75866;SDS011;64513;56.258;43.980;2022-12-18T04:47:27;10.88;;;4.33;;
75866;SDS011;64513;56.258;43.980;2022-12-18T04:49:51;13.28;;;4.53;;
75866;SDS011;64513;56.258;43.980;2022-12-18T04:52:15;10.50;;;4.00;;
75866;SDS011;64513;56.258;43.980;2022-12-18T04:54:40;10.90;;;4.25;;
75866;SDS011;64513;56.258;43.980;2022-12-18T04:57:04;12.95;;;4.60;;
75866;SDS011;64513;56.258;43.980;2022-12-18T04:59:28;11.53;;;4.10;;
75866;SDS011;64513;56.258;43.980;2022-12-18T05:01:52;11.50;;;4.30;;
75866;SDS011;64513;56.258;43.980;2022-12-18T05:04:16;12.75;;;4.55;;
75866;SDS011;64513;56.258;43.980;2022-12-18T05:06:40;11.45;;;4.30;;
75866;SDS011;64513;56.258;43.980;2022-12-18T05:09:04;12.40;;;4.50;;
75866;SDS011;64513;56.258;43.980;2022-12-18T05:11:29;13.50;;;4.50;;
75866;SDS011;64513;56.258;43.980;2022-12-18T05:13:53;11.18;;;4.58;;
75866;SDS011;64513;56.258;43.980;2022-12-18T05:16:17;11.40;;;4.40;;
75866;SDS011;64513;56.258;43.980;2022-12-18T05:18:41;12.00;;;4.92;;
75866;SDS011;64513;56.258;43.980;2022-12-18T05:21:05;11.05;;;4.58;;
75866;SDS011;64513;56.258;43.980;2022-12-18T05:23:30;11.75;;;4.50;;
75866;SDS011;64513;56.258;43.980;2022-12-18T05:26:28;13.15;;;4.90;;
75866;SDS011;64513;56.258;43.980;2022-12-18T05:28:40;13.05;;;4.40;;
75866;SDS011;64513;56.258;43.980;2022-12-18T05:31:04;11.85;;;4.53;;
75866;SDS011;64513;56.258;43.980;2022-12-18T05:33:29;12.07;;;4.50;;
75866;SDS011;64513;56.258;43.980;2022-12-18T05:38:40;11.83;;;4.55;;
75866;SDS011;64513;56.258;43.980;2022-12-18T05:41:04;10.70;;;4.40;;
75866;SDS011;64513;56.258;43.980;2022-12-18T05:43:29;12.63;;;4.22;;
75866;SDS011;64513;56.258;43.980;2022-12-18T05:45:53;11.83;;;4.30;;
75866;SDS011;64513;56.258;43.980;2022-12-18T05:48:18;11.78;;;4.55;;
75866;SDS011;64513;56.258;43.980;2022-12-18T05:50:43;9.53;;;3.87;;
75866;SDS011;64513;56.258;43.980;2022-12-18T05:53:09;11.60;;;4.70;;
75866;SDS011;64513;56.258;43.980;2022-12-18T05:58:17;10.28;;;4.17;;
75866;SDS011;64513;56.258;43.980;2022-12-18T06:00:42;11.97;;;4.35;;
75866;SDS011;64513;56.258;43.980;2022-12-18T06:03:09;10.35;;;4.28;;
75866;SDS011;64513;56.258;43.980;2022-12-18T06:08:19;10.13;;;4.10;;
75866;SDS011;64513;56.258;43.980;2022-12-18T06:10:48;12.25;;;4.85;;
75866;SDS011;64513;56.258;43.980;2022-12-18T06:13:12;12.78;;;4.55;;
75866;SDS011;64513;56.258;43.980;2022-12-18T06:15:36;12.23;;;4.10;;
75866;SDS011;64513;56.258;43.980;2022-12-18T06:18:00;10.00;;;4.20;;
75866;SDS011;64513;56.258;43.980;2022-12-18T06:20:24;10.93;;;4.25;;
75866;SDS011;64513;56.258;43.980;2022-12-18T06:22:49;11.50;;;4.12;;
75866;SDS011;64513;56.258;43.980;2022-12-18T06:25:13;10.85;;;4.30;;
75866;SDS011;64513;56.258;43.980;2022-12-18T06:27:37;13.13;;;4.17;;
75866;SDS011;64513;56.258;43.980;2022-12-18T06:30:01;9.50;;;3.90;;
75866;SDS011;64513;56.258;43.980;2022-12-18T06:32:27;10.03;;;4.20;;
75866;SDS011;64513;56.258;43.980;2022-12-18T06:34:51;11.70;;;4.47;;
75866;SDS011;64513;56.258;43.980;2022-12-18T06:37:16;9.00;;;3.80;;
75866;SDS011;64513;56.258;43.980;2022-12-18T06:39:40;9.73;;;4.10;;
75866;SDS011;64513;56.258;43.980;2022-12-18T06:42:04;8.10;;;3.10;;
75866;SDS011;64513;56.258;43.980;2022-12-18T06:44:29;10.05;;;4.03;;
75866;SDS011;64513;56.258;43.980;2022-12-18T06:46:53;9.05;;;3.33;;
75866;SDS011;64513;56.258;43.980;2022-12-18T06:49:18;9.03;;;3.58;;
75866;SDS011;64513;56.258;43.980;2022-12-18T06:51:42;8.75;;;3.65;;
75866;SDS011;64513;56.258;43.980;2022-12-18T06:54:06;8.00;;;3.60;;
75866;SDS011;64513;56.258;43.980;2022-12-18T06:56:30;9.55;;;3.80;;
75866;SDS011;64513;56.258;43.980;2022-12-18T06:58:54;10.85;;;3.98;;
75866;SDS011;64513;56.258;43.980;2022-12-18T07:01:18;9.00;;;3.80;;
75866;SDS011;64513;56.258;43.980;2022-12-18T07:03:43;10.05;;;4.20;;
75866;SDS011;64513;56.258;43.980;2022-12-18T07:06:12;9.55;;;3.60;;
75866;SDS011;64513;56.258;43.980;2022-12-18T07:08:53;7.78;;;3.30;;
75866;SDS011;64513;56.258;43.980;2022-12-18T07:11:17;8.65;;;3.70;;
75866;SDS011;64513;56.258;43.980;2022-12-18T07:13:42;10.55;;;3.92;;
75866;SDS011;64513;56.258;43.980;2022-12-18T07:18:50;11.60;;;3.90;;
75866;SDS011;64513;56.258;43.980;2022-12-18T07:21:18;8.43;;;3.37;;
75866;SDS011;64513;56.258;43.980;2022-12-18T07:23:42;10.93;;;4.10;;
75866;SDS011;64513;56.258;43.980;2022-12-18T07:26:08;9.00;;;3.62;;
75866;SDS011;64513;56.258;43.980;2022-12-18T07:28:34;10.38;;;3.87;;
75866;SDS011;64513;56.258;43.980;2022-12-18T07:33:44;8.70;;;3.75;;
75866;SDS011;64513;56.258;43.980;2022-12-18T07:36:10;9.95;;;4.03;;
75866;SDS011;64513;56.258;43.980;2022-12-18T07:38:35;8.63;;;3.90;;
75866;SDS011;64513;56.258;43.980;2022-12-18T07:43:43;9.80;;;3.80;;
75866;SDS011;64513;56.258;43.980;2022-12-18T07:46:08;8.55;;;3.80;;
75866;SDS011;64513;56.258;43.980;2022-12-18T07:48:35;10.60;;;4.28;;
75866;SDS011;64513;56.258;43.980;2022-12-18T07:51:00;10.85;;;4.37;;
75866;SDS011;64513;56.258;43.980;2022-12-18T07:53:25;10.13;;;4.17;;
75866;SDS011;64513;56.258;43.980;2022-12-18T07:55:54;7.90;;;3.60;;
75866;SDS011;64513;56.258;43.980;2022-12-18T07:58:35;11.12;;;4.30;;
75866;SDS011;64513;56.258;43.980;2022-12-18T08:03:44;10.48;;;4.42;;
75866;SDS011;64513;56.258;43.980;2022-12-18T08:06:09;10.43;;;4.62;;
75866;SDS011;64513;56.258;43.980;2022-12-18T08:08:33;10.60;;;3.80;;
75866;SDS011;64513;56.258;43.980;2022-12-18T08:10:58;11.60;;;4.58;;
75866;SDS011;64513;56.258;43.980;2022-12-18T08:13:22;11.38;;;4.65;;
75866;SDS011;64513;56.258;43.980;2022-12-18T08:18:34;9.78;;;3.92;;
75866;SDS011;64513;56.258;43.980;2022-12-18T08:23:45;11.35;;;4.22;;
75866;SDS011;64513;56.258;43.980;2022-12-18T08:26:10;11.97;;;4.45;;
75866;SDS011;64513;56.258;43.980;2022-12-18T08:28:34;11.08;;;4.58;;
75866;SDS011;64513;56.258;43.980;2022-12-18T08:30:59;12.63;;;5.22;;
75866;SDS011;64513;56.258;43.980;2022-12-18T08:33:23;13.20;;;5.30;;
75866;SDS011;64513;56.258;43.980;2022-12-18T08:35:48;13.55;;;5.00;;
75866;SDS011;64513;56.258;43.980;2022-12-18T08:38:12;10.60;;;4.45;;
75866;SDS011;64513;56.258;43.980;2022-12-18T08:40:36;13.13;;;4.75;;
75866;SDS011;64513;56.258;43.980;2022-12-18T08:43:01;12.60;;;5.10;;
75866;SDS011;64513;56.258;43.980;2022-12-18T08:45:45;10.40;;;4.60;;
75866;SDS011;64513;56.258;43.980;2022-12-18T08:48:09;11.88;;;4.30;;
75866;SDS011;64513;56.258;43.980;2022-12-18T08:50:33;11.55;;;4.83;;
75866;SDS011;64513;56.258;43.980;2022-12-18T08:52:57;11.15;;;5.00;;
75866;SDS011;64513;56.258;43.980;2022-12-18T08:55:21;12.05;;;4.67;;
75866;SDS011;64513;56.258;43.980;2022-12-18T08:57:47;11.10;;;4.70;;
75866;SDS011;64513;56.258;43.980;2022-12-18T09:00:12;10.53;;;4.30;;
75866;SDS011;64513;56.258;43.980;2022-12-18T09:02:36;12.20;;;5.20;;
75866;SDS011;64513;56.258;43.980;2022-12-18T09:05:01;11.55;;;4.85;;
75866;SDS011;64513;56.258;43.980;2022-12-18T09:07:25;11.70;;;4.83;;
75866;SDS011;64513;56.258;43.980;2022-12-18T09:09:49;13.60;;;5.10;;
75866;SDS011;64513;56.258;43.980;2022-12-18T09:12:13;11.33;;;4.47;;
75866;SDS011;64513;56.258;43.980;2022-12-18T09:14:37;11.12;;;4.70;;
75866;SDS011;64513;56.258;43.980;2022-12-18T09:17:02;10.20;;;4.33;;
75866;SDS011;64513;56.258;43.980;2022-12-18T09:19:26;10.10;;;4.42;;
75866;SDS011;64513;56.258;43.980;2022-12-18T09:21:50;11.00;;;4.40;;
75866;SDS011;64513;56.258;43.980;2022-12-18T09:24:15;10.43;;;4.42;;
75866;SDS011;64513;56.258;43.980;2022-12-18T09:26:39;9.53;;;4.30;;
75866;SDS011;64513;56.258;43.980;2022-12-18T09:29:04;10.53;;;4.35;;
75866;SDS011;64513;56.258;43.980;2022-12-18T09:31:28;9.68;;;3.95;;
75866;SDS011;64513;56.258;43.980;2022-12-18T09:33:54;10.50;;;4.70;;
75866;SDS011;64513;56.258;43.980;2022-12-18T09:36:19;12.40;;;4.97;;
75866;SDS011;64513;56.258;43.980;2022-12-18T09:38:43;11.55;;;5.00;;
75866;SDS011;64513;56.258;43.980;2022-12-18T09:53:10;10.88;;;5.22;;
75866;SDS011;64513;56.258;43.980;2022-12-18T09:55:52;12.80;;;5.87;;
75866;SDS011;64513;56.258;43.980;2022-12-18T10:03:50;13.80;;;6.05;;
75866;SDS011;64513;56.258;43.980;2022-12-18T10:26:49;13.32;;;5.47;;
75866;SDS011;64513;56.258;43.980;2022-12-18T10:29:15;14.80;;;6.40;;
75866;SDS011;64513;56.258;43.980;2022-12-18T10:31:40;15.23;;;6.15;;
75866;SDS011;64513;56.258;43.980;2022-12-18T10:34:07;15.05;;;6.80;;
75866;SDS011;64513;56.258;43.980;2022-12-18T10:36:50;16.60;;;6.45;;
75866;SDS011;64513;56.258;43.980;2022-12-18T10:39:47;15.15;;;6.25;;
75866;SDS011;64513;56.258;43.980;2022-12-18T10:44:44;15.93;;;4.90;;
75866;SDS011;64513;56.258;43.980;2022-12-18T10:47:11;11.00;;;5.00;;
75866;SDS011;64513;56.258;43.980;2022-12-18T10:49:54;17.90;;;6.22;;
75866;SDS011;64513;56.258;43.980;2022-12-18T10:55:03;15.80;;;6.70;;
75866;SDS011;64513;56.258;43.980;2022-12-18T10:59:57;16.45;;;6.50;;
75866;SDS011;64513;56.258;43.980;2022-12-18T11:08:19;13.70;;;6.50;;
75866;SDS011;64513;56.258;43.980;2022-12-18T11:10:37;15.75;;;6.55;;
75866;SDS011;64513;56.258;43.980;2022-12-18T11:15:48;14.63;;;6.42;;
75866;SDS011;64513;56.258;43.980;2022-12-18T11:37:50;13.65;;;6.40;;
75866;SDS011;64513;56.258;43.980;2022-12-18T11:40:17;16.90;;;6.95;;
75866;SDS011;64513;56.258;43.980;2022-12-18T11:43:05;15.58;;;6.55;;
75866;SDS011;64513;56.258;43.980;2022-12-18T11:45:49;14.98;;;6.53;;
75866;SDS011;64513;56.258;43.980;2022-12-18T11:51:53;14.13;;;6.12;;
75866;SDS011;64513;56.258;43.980;2022-12-18T11:54:09;15.98;;;6.42;;
75866;SDS011;64513;56.258;43.980;2022-12-18T12:40:49;11.65;;;5.03;;
75866;SDS011;64513;56.258;43.980;2022-12-18T12:46:19;11.60;;;5.30;;
75866;SDS011;64513;56.258;43.980;2022-12-18T12:51:34;13.88;;;5.35;;
75866;SDS011;64513;56.258;43.980;2022-12-18T12:54:00;15.53;;;7.22;;
75866;SDS011;64513;56.258;43.980;2022-12-18T13:02:18;14.10;;;5.83;;
75866;SDS011;64513;56.258;43.980;2022-12-18T13:05:06;12.10;;;5.78;;
75866;SDS011;64513;56.258;43.980;2022-12-18T13:16:23;12.03;;;5.33;;
75866;SDS011;64513;56.258;43.980;2022-12-18T13:18:50;12.18;;;4.90;;
75866;SDS011;64513;56.258;43.980;2022-12-18T13:23:45;11.68;;;5.10;;
75866;SDS011;64513;56.258;43.980;2022-12-18T13:28:55;14.07;;;5.08;;
75866;SDS011;64513;56.258;43.980;2022-12-18T13:36:54;10.18;;;4.90;;
75866;SDS011;64513;56.258;43.980;2022-12-18T13:39:21;12.70;;;4.50;;
75866;SDS011;64513;56.258;43.980;2022-12-18T13:47:02;13.55;;;4.95;;
75866;SDS011;64513;56.258;43.980;2022-12-18T13:54:58;12.78;;;5.00;;
75866;SDS011;64513;56.258;43.980;2022-12-18T14:02:55;11.08;;;4.70;;
75866;SDS011;64513;56.258;43.980;2022-12-18T14:10:52;12.23;;;4.55;;
75866;SDS011;64513;56.258;43.980;2022-12-18T14:16:04;14.53;;;5.10;;
75866;SDS011;64513;56.258;43.980;2022-12-18T14:21:33;13.32;;;4.53;;
75866;SDS011;64513;56.258;43.980;2022-12-18T14:26:43;11.05;;;4.80;;
75866;SDS011;64513;56.258;43.980;2022-12-18T14:34:38;12.28;;;5.15;;
75866;SDS011;64513;56.258;43.980;2022-12-18T14:37:03;12.00;;;4.92;;
75866;SDS011;64513;56.258;43.980;2022-12-18T14:39:28;11.08;;;4.92;;
75866;SDS011;64513;56.258;43.980;2022-12-18T14:41:52;11.05;;;4.85;;
75866;SDS011;64513;56.258;43.980;2022-12-18T14:44:16;15.90;;;5.00;;
75866;SDS011;64513;56.258;43.980;2022-12-18T14:46:42;12.55;;;4.95;;
75866;SDS011;64513;56.258;43.980;2022-12-18T14:51:55;12.70;;;5.42;;
75866;SDS011;64513;56.258;43.980;2022-12-18T14:54:21;11.97;;;5.00;;
75866;SDS011;64513;56.258;43.980;2022-12-18T14:59:15;14.10;;;5.35;;
75866;SDS011;64513;56.258;43.980;2022-12-18T15:04:46;13.45;;;5.40;;
75866;SDS011;64513;56.258;43.980;2022-12-18T15:07:14;13.68;;;5.60;;
75866;SDS011;64513;56.258;43.980;2022-12-18T15:18:18;12.13;;;5.58;;
75866;SDS011;64513;56.258;43.980;2022-12-18T15:23:50;13.80;;;5.50;;
75866;SDS011;64513;56.258;43.980;2022-12-18T15:26:16;13.08;;;5.15;;
75866;SDS011;64513;56.258;43.980;2022-12-18T15:34:31;14.58;;;5.85;;
75866;SDS011;64513;56.258;43.980;2022-12-18T15:36:55;14.70;;;6.00;;
75866;SDS011;64513;56.258;43.980;2022-12-18T15:39:20;14.13;;;5.40;;
75866;SDS011;64513;56.258;43.980;2022-12-18T15:41:44;14.18;;;5.97;;
75866;SDS011;64513;56.258;43.980;2022-12-18T15:44:28;13.58;;;5.33;;
75866;SDS011;64513;56.258;43.980;2022-12-18T15:46:52;13.43;;;5.85;;
75866;SDS011;64513;56.258;43.980;2022-12-18T15:49:17;12.80;;;5.60;;
75866;SDS011;64513;56.258;43.980;2022-12-18T15:51:41;14.05;;;5.90;;
75866;SDS011;64513;56.258;43.980;2022-12-18T15:54:06;12.93;;;5.92;;
75866;SDS011;64513;56.258;43.980;2022-12-18T15:56:32;11.35;;;5.17;;
75866;SDS011;64513;56.258;43.980;2022-12-18T16:02:00;12.10;;;5.45;;
75866;SDS011;64513;56.258;43.980;2022-12-18T16:04:25;16.52;;;5.80;;
75866;SDS011;64513;56.258;43.980;2022-12-18T16:06:50;12.50;;;5.65;;
75866;SDS011;64513;56.258;43.980;2022-12-18T16:09:14;12.90;;;5.55;;
75866;SDS011;64513;56.258;43.980;2022-12-18T16:11:39;13.20;;;5.85;;
75866;SDS011;64513;56.258;43.980;2022-12-18T16:16:53;10.98;;;5.15;;
75866;SDS011;64513;56.258;43.980;2022-12-18T16:19:20;13.98;;;5.67;;
75866;SDS011;64513;56.258;43.980;2022-12-18T16:21:45;11.05;;;5.28;;
75866;SDS011;64513;56.258;43.980;2022-12-18T16:26:57;12.75;;;5.25;;
75866;SDS011;64513;56.258;43.980;2022-12-18T16:29:23;15.35;;;5.25;;
75866;SDS011;64513;56.258;43.980;2022-12-18T16:31:48;11.20;;;5.35;;
75866;SDS011;64513;56.258;43.980;2022-12-18T16:34:18;13.72;;;5.78;;
75866;SDS011;64513;56.258;43.980;2022-12-18T16:37:00;12.30;;;5.15;;
75866;SDS011;64513;56.258;43.980;2022-12-18T16:39:26;12.00;;;4.95;;
75866;SDS011;64513;56.258;43.980;2022-12-18T16:41:51;15.28;;;5.67;;
75866;SDS011;64513;56.258;43.980;2022-12-18T16:44:15;12.80;;;5.87;;
75866;SDS011;64513;56.258;43.980;2022-12-18T16:46:40;13.22;;;5.37;;
75866;SDS011;64513;56.258;43.980;2022-12-18T16:49:06;14.50;;;5.60;;
75866;SDS011;64513;56.258;43.980;2022-12-18T16:51:30;13.45;;;4.45;;
75866;SDS011;64513;56.258;43.980;2022-12-18T16:53:56;16.37;;;5.90;;
75866;SDS011;64513;56.258;43.980;2022-12-18T16:56:20;12.75;;;4.92;;
75866;SDS011;64513;56.258;43.980;2022-12-18T16:58:49;14.33;;;5.00;;
75866;SDS011;64513;56.258;43.980;2022-12-18T17:01:30;11.65;;;5.35;;
75866;SDS011;64513;56.258;43.980;2022-12-18T17:03:56;14.10;;;5.35;;
75866;SDS011;64513;56.258;43.980;2022-12-18T17:06:41;11.97;;;5.33;;
75866;SDS011;64513;56.258;43.980;2022-12-18T17:11:53;11.93;;;4.47;;
75866;SDS011;64513;56.258;43.980;2022-12-18T17:14:18;11.60;;;4.75;;
75866;SDS011;64513;56.258;43.980;2022-12-18T17:16:44;10.90;;;4.60;;
75866;SDS011;64513;56.258;43.980;2022-12-18T17:19:09;10.08;;;4.35;;
75866;SDS011;64513;56.258;43.980;2022-12-18T17:21:35;10.58;;;4.87;;
75866;SDS011;64513;56.258;43.980;2022-12-18T17:23:59;12.58;;;4.95;;
75866;SDS011;64513;56.258;43.980;2022-12-18T17:26:24;12.85;;;4.87;;
75866;SDS011;64513;56.258;43.980;2022-12-18T17:28:48;11.75;;;4.65;;
75866;SDS011;64513;56.258;43.980;2022-12-18T17:31:13;10.95;;;4.45;;
75866;SDS011;64513;56.258;43.980;2022-12-18T17:33:58;11.70;;;4.97;;
75866;SDS011;64513;56.258;43.980;2022-12-18T17:36:24;11.75;;;5.08;;
75866;SDS011;64513;56.258;43.980;2022-12-18T17:38:51;13.43;;;5.35;;
75866;SDS011;64513;56.258;43.980;2022-12-18T17:41:17;11.80;;;4.90;;
75866;SDS011;64513;56.258;43.980;2022-12-18T17:43:42;12.35;;;5.00;;
75866;SDS011;64513;56.258;43.980;2022-12-18T17:46:06;12.85;;;5.53;;
75866;SDS011;64513;56.258;43.980;2022-12-18T17:48:34;16.20;;;5.40;;
75866;SDS011;64513;56.258;43.980;2022-12-18T17:51:01;12.30;;;5.62;;
75866;SDS011;64513;56.258;43.980;2022-12-18T17:53:28;13.30;;;5.80;;
75866;SDS011;64513;56.258;43.980;2022-12-18T17:58:21;12.88;;;5.47;;
75866;SDS011;64513;56.258;43.980;2022-12-18T18:00:45;12.60;;;5.05;;
75866;SDS011;64513;56.258;43.980;2022-12-18T18:03:10;14.58;;;5.37;;
75866;SDS011;64513;56.258;43.980;2022-12-18T18:05:34;14.30;;;6.20;;
75866;SDS011;64513;56.258;43.980;2022-12-18T18:07:58;14.23;;;5.75;;
75866;SDS011;64513;56.258;43.980;2022-12-18T18:10:23;12.80;;;5.67;;
75866;SDS011;64513;56.258;43.980;2022-12-18T18:12:48;12.58;;;4.80;;
75866;SDS011;64513;56.258;43.980;2022-12-18T18:15:32;11.18;;;4.85;;
75866;SDS011;64513;56.258;43.980;2022-12-18T18:17:56;12.40;;;4.70;;
75866;SDS011;64513;56.258;43.980;2022-12-18T18:20:22;11.70;;;5.12;;
75866;SDS011;64513;56.258;43.980;2022-12-18T18:22:48;14.58;;;5.03;;
75866;SDS011;64513;56.258;43.980;2022-12-18T18:25:12;12.55;;;5.00;;
75866;SDS011;64513;56.258;43.980;2022-12-18T18:27:36;12.15;;;4.70;;
75866;SDS011;64513;56.258;43.980;2022-12-18T18:30:00;11.80;;;5.15;;
75866;SDS011;64513;56.258;43.980;2022-12-18T18:32:26;11.25;;;4.75;;
75866;SDS011;64513;56.258;43.980;2022-12-18T18:34:50;10.13;;;4.67;;
75866;SDS011;64513;56.258;43.980;2022-12-18T18:37:15;12.13;;;5.35;;
75866;SDS011;64513;56.258;43.980;2022-12-18T18:39:39;14.10;;;5.42;;
75866;SDS011;64513;56.258;43.980;2022-12-18T18:42:03;14.90;;;5.10;;
75866;SDS011;64513;56.258;43.980;2022-12-18T18:44:28;14.05;;;5.20;;
75866;SDS011;64513;56.258;43.980;2022-12-18T18:49:37;11.05;;;5.00;;
75866;SDS011;64513;56.258;43.980;2022-12-18T18:52:01;12.80;;;5.15;;
75866;SDS011;64513;56.258;43.980;2022-12-18T18:54:26;13.30;;;5.00;;
75866;SDS011;64513;56.258;43.980;2022-12-18T18:56:50;12.85;;;4.67;;
75866;SDS011;64513;56.258;43.980;2022-12-18T18:59:15;10.38;;;4.30;;
75866;SDS011;64513;56.258;43.980;2022-12-18T19:01:39;14.45;;;5.28;;
75866;SDS011;64513;56.258;43.980;2022-12-18T19:04:03;11.12;;;4.90;;
75866;SDS011;64513;56.258;43.980;2022-12-18T19:06:28;11.90;;;4.20;;
75866;SDS011;64513;56.258;43.980;2022-12-18T19:08:52;11.93;;;5.03;;
75866;SDS011;64513;56.258;43.980;2022-12-18T19:11:17;11.73;;;4.75;;
75866;SDS011;64513;56.258;43.980;2022-12-18T19:14:04;11.68;;;4.58;;
75866;SDS011;64513;56.258;43.980;2022-12-18T19:16:30;11.80;;;4.80;;
75866;SDS011;64513;56.258;43.980;2022-12-18T19:18:56;12.00;;;4.70;;
75866;SDS011;64513;56.258;43.980;2022-12-18T19:21:20;14.83;;;5.15;;
75866;SDS011;64513;56.258;43.980;2022-12-18T19:23:45;12.40;;;4.92;;
75866;SDS011;64513;56.258;43.980;2022-12-18T19:26:12;11.90;;;4.60;;
75866;SDS011;64513;56.258;43.980;2022-12-18T19:28:36;11.15;;;4.90;;
75866;SDS011;64513;56.258;43.980;2022-12-18T19:31:02;11.00;;;4.30;;
75866;SDS011;64513;56.258;43.980;2022-12-18T19:33:29;13.10;;;4.90;;
75866;SDS011;64513;56.258;43.980;2022-12-18T19:35:55;13.15;;;4.90;;
75866;SDS011;64513;56.258;43.980;2022-12-18T19:38:21;12.07;;;4.15;;